Time;durP1;ratioP1;P1;durP2;ratioP2;P2;SDS_P1;SDS_P2;PMS_P1;PMS_P2;Temp;Humidity;BMP_temperature;BMP_pressure;BME280_temperature;BME280_humidity;BME280_pressure;Samples;Min_cycle;Max_cycle;Signal;HPM_P1;HPM_P2
2022/01/17 00:01:14;;;;;;;116.40;34.78;;;1.00;99.90;;;-0.40;100.00;99150.63;5025743;28;20085;-69
2022/01/17 00:03:42;;;;;;;93.55;30.08;;;1.00;99.90;;;-0.36;100.00;99157.53;5026626;28;20045;-69
2022/01/17 00:06:09;;;;;;;90.90;34.58;;;0.90;99.90;;;-0.28;100.00;99156.88;5027027;28;20061;-69
2022/01/17 00:08:41;;;;;;;75.53;29.98;;;0.90;99.90;;;-0.22;100.00;99159.59;5027350;28;20530;-69
2022/01/17 00:11:11;;;;;;;161.93;39.65;;;0.90;99.90;;;-0.36;100.00;99167.75;5025127;28;20124;-70
2022/01/17 00:13:39;;;;;;;95.80;33.95;;;1.00;99.90;;;-0.30;100.00;99155.97;5022104;28;20422;-70
2022/01/17 00:16:13;;;;;;;109.93;31.55;;;1.00;99.90;;;-0.30;100.00;99152.56;5026029;28;20088;-69
2022/01/17 00:21:17;;;;;;;114.22;32.60;;;1.10;99.90;;;-0.49;100.00;99149.53;5026724;28;20107;-69
2022/01/17 00:23:44;;;;;;;77.32;28.75;;;1.10;99.90;;;-0.38;100.00;99151.53;5026627;28;20045;-69
2022/01/17 00:26:11;;;;;;;86.47;31.20;;;1.00;99.90;;;-0.51;100.00;99157.97;5026316;28;20140;-70
2022/01/17 00:28:38;;;;;;;71.45;27.83;;;1.00;99.90;;;-0.34;100.00;99158.41;5025008;28;20068;-69
2022/01/17 00:31:05;;;;;;;66.93;26.83;;;1.00;99.90;;;-0.44;100.00;99163.28;5027011;28;20583;-69
2022/01/17 00:33:33;;;;;;;83.72;27.70;;;1.10;99.90;;;-0.41;100.00;99162.53;5025119;28;20055;-69
2022/01/17 00:36:01;;;;;;;81.47;30.20;;;1.10;99.90;;;-0.44;100.00;99173.47;5024508;28;20065;-69
2022/01/17 00:38:31;;;;;;;92.85;31.67;;;1.10;99.90;;;-0.50;100.00;99175.00;5024991;28;20522;-69
2022/01/17 00:40:58;;;;;;;68.25;25.73;;;1.10;99.90;;;-0.43;100.00;99162.47;5024666;28;20073;-68
2022/01/17 00:43:25;;;;;;;64.68;26.08;;;1.10;99.90;;;-0.43;100.00;99166.72;5027970;28;20100;-69
2022/01/17 00:45:52;;;;;;;85.47;30.52;;;1.10;99.90;;;-0.47;100.00;99168.31;5026184;28;20052;-69
2022/01/17 00:48:19;;;;;;;69.25;26.77;;;1.10;99.90;;;-0.42;100.00;99148.00;5027087;28;20057;-70
2022/01/17 00:50:47;;;;;;;85.40;28.75;;;1.10;99.90;;;-0.40;100.00;99148.06;5026225;28;20053;-69
2022/01/17 00:53:14;;;;;;;60.90;22.08;;;1.00;99.90;;;-0.51;100.00;99135.88;5025101;28;20528;-69
2022/01/17 00:55:41;;;;;;;62.17;25.80;;;1.00;99.90;;;-0.41;100.00;99137.00;5026052;28;20064;-69
2022/01/17 00:58:08;;;;;;;57.97;23.88;;;1.00;99.90;;;-0.40;100.00;99128.50;5024097;28;20128;-69
2022/01/17 01:00:36;;;;;;;44.30;18.92;;;1.00;99.90;;;-0.34;100.00;99141.44;5026788;28;20050;-68
2022/01/17 01:03:03;;;;;;;57.78;23.38;;;1.00;99.90;;;-0.44;100.00;99131.81;5025059;28;20053;-69
2022/01/17 01:05:30;;;;;;;48.25;21.10;;;1.00;99.90;;;-0.40;100.00;99120.88;5027710;28;20092;-68
2022/01/17 01:07:58;;;;;;;53.17;21.08;;;1.00;99.90;;;-0.43;100.00;99121.66;5026584;28;20084;-70
2022/01/17 01:10:25;;;;;;;54.33;22.08;;;1.00;99.90;;;-0.47;100.00;99126.63;5027156;28;20129;-68
2022/01/17 01:12:52;;;;;;;70.18;24.35;;;1.00;99.90;;;-0.46;100.00;99124.13;5025754;28;20080;-69
2022/01/17 01:18:13;;;;;;;71.63;26.17;;;1.00;99.90;;;-0.54;100.00;99140.06;5025695;28;20446;-69
2022/01/17 01:28:45;;;;;;;78.07;26.65;;;1.00;99.90;;;-0.57;100.00;99163.78;5023981;28;20834;-68
2022/01/17 01:31:17;;;;;;;71.53;25.42;;;1.00;99.90;;;-0.48;100.00;99169.13;5025949;28;20136;-69
2022/01/17 01:33:51;;;;;;;65.28;23.25;;;1.00;99.90;;;-0.44;100.00;99159.88;5025648;28;20056;-69
2022/01/17 01:36:26;;;;;;;60.47;21.67;;;1.00;99.90;;;-0.50;100.00;99170.78;5026103;28;20545;-70
2022/01/17 01:38:53;;;;;;;62.47;23.90;;;1.00;99.90;;;-0.41;100.00;99180.38;5026144;28;20085;-69
2022/01/17 01:41:21;;;;;;;86.38;29.80;;;1.00;99.90;;;-0.40;100.00;99163.38;5027050;28;20037;-69
2022/01/17 01:43:49;;;;;;;78.15;27.23;;;1.00;99.90;;;-0.34;100.00;99156.75;5028211;28;20129;-69
2022/01/17 01:46:19;;;;;;;61.53;25.10;;;1.00;99.90;;;-0.42;100.00;99156.53;5027201;28;20049;-69
2022/01/17 01:48:46;;;;;;;76.15;30.10;;;1.00;99.90;;;-0.42;100.00;99155.66;5029572;28;20465;-68
2022/01/17 01:51:14;;;;;;;75.43;26.50;;;1.00;99.90;;;-0.44;100.00;99153.06;5030050;28;20099;-69
2022/01/17 01:53:41;;;;;;;81.32;28.85;;;1.00;99.90;;;-0.33;100.00;99155.91;5032137;28;20124;-69
2022/01/17 01:56:08;;;;;;;78.68;27.52;;;1.00;99.90;;;-0.27;100.00;99171.38;5030032;28;20059;-69
2022/01/17 01:58:35;;;;;;;64.38;25.95;;;1.00;99.90;;;-0.40;100.00;99165.94;5028175;28;20138;-69
2022/01/17 02:01:03;;;;;;;72.95;27.13;;;1.00;99.90;;;-0.34;100.00;99174.59;5028327;28;20049;-69
2022/01/17 02:03:30;;;;;;;72.85;24.80;;;1.00;99.90;;;-0.43;100.00;99184.56;5030359;28;20111;-68
2022/01/17 02:05:57;;;;;;;67.07;23.95;;;1.00;99.90;;;-0.19;100.00;99175.81;5031021;28;20122;-68
2022/01/17 02:08:24;;;;;;;69.40;25.35;;;1.10;99.90;;;-0.30;100.00;99172.97;5029837;28;20125;-69
2022/01/17 02:10:51;;;;;;;77.05;25.73;;;1.10;99.90;;;-0.37;100.00;99171.09;5028830;28;20041;-69
2022/01/17 02:13:18;;;;;;;69.90;23.70;;;1.10;99.90;;;-0.31;100.00;99172.13;5029852;28;20095;-69
2022/01/17 02:15:47;;;;;;;77.65;26.48;;;1.10;99.90;;;-0.27;100.00;99180.75;5030300;28;20075;-69
2022/01/17 02:18:22;;;;;;;87.07;27.42;;;1.10;99.90;;;-0.35;100.00;99189.88;5029465;28;20786;-69
2022/01/17 02:21:10;;;;;;;83.10;26.55;;;1.10;99.90;;;-0.34;100.00;99195.03;5030824;28;20119;-68
2022/01/17 02:23:36;;;;;;;56.65;22.33;;;1.10;99.90;;;-0.25;100.00;99190.16;5030621;28;20041;-70
2022/01/17 02:26:03;;;;;;;74.90;25.35;;;1.10;99.90;;;-0.35;100.00;99193.28;5030388;28;20064;-68
2022/01/17 02:28:33;;;;;;;61.95;22.48;;;1.00;99.90;;;-0.33;100.00;99173.78;5028119;28;20121;-68
2022/01/17 02:31:01;;;;;;;62.10;22.55;;;1.00;99.90;;;-0.28;100.00;99166.22;5030251;28;20122;-70
2022/01/17 02:33:28;;;;;;;73.18;23.10;;;1.00;99.90;;;-0.25;100.00;99163.75;5027952;28;20454;-69
2022/01/17 02:35:55;;;;;;;101.45;27.30;;;1.10;99.90;;;-0.42;100.00;99179.50;5029954;28;20412;-69
2022/01/17 02:38:22;;;;;;;74.30;23.98;;;1.10;99.90;;;-0.40;100.00;99181.22;5029585;28;20133;-69
2022/01/17 02:40:51;;;;;;;69.22;22.67;;;1.10;99.90;;;-0.35;100.00;99187.31;5029912;28;20045;-69
2022/01/17 02:43:20;;;;;;;77.95;23.10;;;1.10;99.90;;;-0.32;100.00;99195.03;5029668;28;20046;-69
2022/01/17 02:48:26;;;;;;;97.28;24.42;;;1.00;99.90;;;-0.43;100.00;99198.19;5029272;28;20187;-69
2022/01/17 02:50:54;;;;;;;71.43;23.15;;;1.10;99.90;;;-0.36;100.00;99170.28;5010869;28;20129;-68
2022/01/17 02:53:22;;;;;;;164.70;29.08;;;1.00;99.90;;;-0.57;100.00;99181.66;5029194;28;20569;-69
2022/01/17 02:55:58;;;;;;;183.23;31.83;;;1.00;99.90;;;-0.58;100.00;99179.91;5028189;28;20125;-69
2022/01/17 02:58:28;;;;;;;194.88;32.40;;;1.00;99.90;;;-0.41;100.00;99185.47;5025917;28;20133;-69
2022/01/17 03:00:57;;;;;;;135.73;27.58;;;1.00;99.90;;;-0.38;100.00;99179.59;5028396;28;20136;-69
2022/01/17 03:03:28;;;;;;;245.80;33.13;;;1.00;99.90;;;-0.50;100.00;99183.53;5029660;28;20041;-70
2022/01/17 03:05:56;;;;;;;154.48;25.23;;;1.00;99.90;;;-0.45;100.00;99176.88;5029026;28;20076;-69
2022/01/17 03:08:27;;;;;;;200.55;30.58;;;0.90;99.90;;;-0.53;100.00;99175.78;5027782;28;20472;-69
2022/01/17 03:10:55;;;;;;;167.18;27.08;;;1.00;99.90;;;-0.44;100.00;99155.63;5029833;28;20243;-68
2022/01/17 03:13:31;;;;;;;314.65;35.75;;;0.90;99.90;;;-0.49;100.00;99154.63;5029654;28;20473;-69
2022/01/17 03:16:02;;;;;;;230.98;30.33;;;0.90;99.90;;;-0.50;100.00;99162.25;5030835;28;20132;-69
2022/01/17 03:18:32;;;;;;;301.33;33.17;;;0.90;99.90;;;-0.53;100.00;99145.16;5032266;28;20045;-69
2022/01/17 03:21:00;;;;;;;219.52;27.67;;;0.90;99.90;;;-0.49;100.00;99147.00;5032547;28;20111;-69
2022/01/17 03:23:27;;;;;;;207.27;27.55;;;0.90;99.90;;;-0.56;100.00;99155.31;5029172;28;20049;-69
2022/01/17 03:25:56;;;;;;;135.23;24.85;;;0.90;99.90;;;-0.46;100.00;99158.94;5028209;28;20132;-69
2022/01/17 03:28:25;;;;;;;154.57;23.73;;;0.90;99.90;;;-0.48;100.00;99173.34;5031074;28;20135;-68
2022/01/17 03:30:53;;;;;;;200.30;29.15;;;0.80;99.90;;;-0.57;100.00;99170.56;5031724;28;20037;-69
2022/01/17 03:33:21;;;;;;;130.50;24.50;;;0.90;99.90;;;-0.59;100.00;99183.28;5028655;28;20556;-68
2022/01/17 03:35:48;;;;;;;155.70;24.85;;;0.90;99.90;;;-0.51;100.00;99180.94;5027950;28;20132;-69
2022/01/17 03:38:20;;;;;;;97.65;23.98;;;0.90;99.90;;;-0.55;100.00;99182.53;5028385;28;20128;-68
2022/01/17 03:40:50;;;;;;;142.75;25.38;;;0.90;99.90;;;-0.47;100.00;99173.41;5026113;28;20132;-69
2022/01/17 03:43:19;;;;;;;220.07;31.30;;;0.80;99.90;;;-0.54;100.00;99178.31;5028074;28;20077;-69
2022/01/17 03:45:46;;;;;;;163.88;27.45;;;0.90;99.90;;;-0.55;100.00;99185.06;5028597;28;20053;-69
2022/01/17 03:48:14;;;;;;;135.05;24.25;;;0.90;99.90;;;-0.58;100.00;99191.78;5028462;28;20060;-68
2022/01/17 03:50:41;;;;;;;172.07;26.85;;;0.90;99.90;;;-0.71;100.00;99188.91;5028638;28;20052;-69
2022/01/17 03:53:09;;;;;;;134.73;25.80;;;0.90;99.90;;;-0.65;100.00;99185.66;5033767;28;20049;-69
2022/01/17 03:55:36;;;;;;;204.88;29.40;;;0.90;99.90;;;-0.63;100.00;99179.78;5027561;28;20045;-69
2022/01/17 03:58:08;;;;;;;202.85;29.38;;;0.90;99.90;;;-0.59;100.00;99174.75;5030065;28;20291;-68
2022/01/17 04:00:42;;;;;;;253.95;34.38;;;0.90;99.90;;;-0.71;100.00;99171.06;5026816;28;20076;-69
2022/01/17 04:03:10;;;;;;;189.52;26.33;;;0.90;99.90;;;-0.73;100.00;99174.38;5027045;28;20109;-70
2022/01/17 04:05:38;;;;;;;272.27;32.90;;;0.90;99.90;;;-0.68;100.00;99181.34;5029861;28;20227;-70
2022/01/17 04:08:07;;;;;;;171.95;25.17;;;0.90;99.90;;;-0.61;100.00;99171.31;5028007;28;20144;-68
2022/01/17 04:10:34;;;;;;;171.73;25.05;;;0.80;99.90;;;-0.60;100.00;99181.53;5028616;28;20244;-68
2022/01/17 04:13:04;;;;;;;195.63;30.45;;;0.80;99.90;;;-0.60;100.00;99175.59;5027482;28;20129;-69
2022/01/17 04:15:35;;;;;;;288.77;32.10;;;0.80;99.90;;;-0.63;100.00;99176.38;5029416;28;20045;-69
2022/01/17 04:18:05;;;;;;;333.02;34.80;;;0.90;99.90;;;-0.57;100.00;99179.09;5027703;28;20111;-70
2022/01/17 04:20:33;;;;;;;222.88;27.65;;;0.80;99.90;;;-0.67;100.00;99177.09;5028068;28;20141;-70
2022/01/17 04:23:06;;;;;;;270.42;31.13;;;0.90;99.90;;;-0.76;100.00;99180.25;5027925;28;20137;-69
2022/01/17 04:25:36;;;;;;;285.58;31.45;;;0.80;99.90;;;-0.64;100.00;99170.41;5026801;28;20068;-69
2022/01/17 04:28:06;;;;;;;426.80;37.10;;;0.80;99.90;;;-0.63;100.00;99169.56;5026240;28;20133;-69
2022/01/17 04:30:33;;;;;;;230.00;25.65;;;0.80;99.90;;;-0.57;100.00;99180.75;5026264;28;20224;-69
2022/01/17 04:33:00;;;;;;;379.73;36.67;;;0.80;99.90;;;-0.68;100.00;99167.72;5042983;28;20049;-68
2022/01/17 04:35:29;;;;;;;299.30;33.60;;;0.80;99.90;;;-0.73;100.00;99166.72;5026871;28;20569;-69
2022/01/17 04:38:13;;;;;;;344.20;33.78;;;0.70;99.90;;;-0.69;100.00;99176.19;5026806;28;20136;-69
2022/01/17 04:40:40;;;;;;;430.92;43.75;;;0.70;99.90;;;-0.61;100.00;99176.41;5028467;28;20466;-68
2022/01/17 04:43:18;;;;;;;303.65;36.22;;;0.70;99.90;;;-0.74;100.00;99178.59;5027421;28;20136;-68
2022/01/17 04:45:48;;;;;;;349.33;36.97;;;0.70;99.90;;;-0.71;100.00;99152.31;5027076;28;20136;-69
2022/01/17 04:48:15;;;;;;;435.52;43.38;;;0.70;99.90;;;-0.66;100.00;99145.69;5027913;28;20148;-69
2022/01/17 04:50:42;;;;;;;392.67;37.55;;;0.60;99.90;;;-0.77;100.00;99167.47;5029859;28;20490;-69
2022/01/17 04:53:12;;;;;;;442.73;43.75;;;0.70;99.90;;;-0.81;100.00;99160.56;5025627;28;20638;-68
2022/01/17 04:55:39;;;;;;;519.35;48.22;;;0.60;99.90;;;-0.82;100.00;99151.16;5028697;28;20054;-68
2022/01/17 04:58:06;;;;;;;549.60;57.65;;;0.70;99.90;;;-0.97;100.00;99160.13;5027119;28;20076;-70
2022/01/17 05:00:33;;;;;;;529.72;53.65;;;0.70;99.90;;;-0.83;100.00;99154.53;5027835;28;20147;-70
2022/01/17 05:03:00;;;;;;;367.42;40.42;;;0.70;99.90;;;-0.76;100.00;99172.59;5028112;28;20565;-69
2022/01/17 05:05:27;;;;;;;576.90;53.28;;;0.70;99.90;;;-0.76;100.00;99167.50;5028464;28;20050;-69
2022/01/17 05:07:54;;;;;;;531.08;49.38;;;0.70;99.90;;;-0.74;100.00;99172.66;5028250;28;20064;-69
2022/01/17 05:10:22;;;;;;;372.45;39.90;;;0.70;99.90;;;-0.77;100.00;99181.09;5027685;28;20073;-69
2022/01/17 05:12:50;;;;;;;573.35;53.03;;;0.70;99.90;;;-0.72;100.00;99199.91;5027998;28;20041;-69
2022/01/17 05:15:27;;;;;;;387.27;40.70;;;0.70;99.90;;;-0.65;100.00;99193.31;5027201;28;20140;-69
2022/01/17 05:18:12;;;;;;;344.83;41.13;;;0.70;99.90;;;-0.57;100.00;99198.59;5027467;28;20085;-69
2022/01/17 05:20:41;;;;;;;285.13;38.47;;;0.70;99.90;;;-0.56;100.00;99205.47;5027697;28;20132;-69
2022/01/17 05:23:10;;;;;;;405.42;44.45;;;0.70;99.90;;;-0.74;100.00;99208.34;5028466;28;20053;-69
2022/01/17 05:25:37;;;;;;;266.35;33.83;;;0.70;99.90;;;-0.65;100.00;99186.50;5031993;28;20076;-68
2022/01/17 05:28:05;;;;;;;390.60;37.70;;;0.70;99.90;;;-0.71;100.00;99182.94;5030010;28;20102;-69
2022/01/17 05:30:32;;;;;;;391.42;40.28;;;0.70;99.90;;;-0.81;100.00;99175.84;5031504;28;20149;-69
2022/01/17 05:32:59;;;;;;;476.17;50.65;;;0.70;99.90;;;-0.81;100.00;99194.56;5030264;28;20129;-68
2022/01/17 05:35:27;;;;;;;558.53;55.50;;;0.70;99.90;;;-0.83;100.00;99200.44;5032747;28;20083;-69
2022/01/17 05:37:54;;;;;;;381.05;44.85;;;0.70;99.90;;;-0.71;100.00;99194.00;5033226;28;20176;-69
2022/01/17 05:40:21;;;;;;;513.70;49.42;;;0.70;99.90;;;-0.76;100.00;99207.44;5033589;28;20077;-68
2022/01/17 05:42:48;;;;;;;280.33;34.78;;;0.70;99.90;;;-0.73;100.00;99210.06;5028453;28;20361;-69
2022/01/17 05:45:17;;;;;;;456.20;48.88;;;0.70;99.90;;;-0.67;100.00;99220.44;5030505;28;20045;-68
2022/01/17 05:47:45;;;;;;;541.75;54.55;;;0.70;99.90;;;-0.70;100.00;99212.72;5031774;28;20160;-69
2022/01/17 05:50:14;;;;;;;495.58;49.70;;;0.70;99.90;;;-0.81;100.00;99212.41;5030120;28;20045;-70
2022/01/17 05:52:42;;;;;;;399.98;45.40;;;0.70;99.90;;;-0.74;100.00;99193.91;5029945;28;20080;-69
2022/01/17 05:55:14;;;;;;;544.53;52.63;;;0.70;99.90;;;-0.77;100.00;99201.47;5031117;28;20189;-69
2022/01/17 05:57:41;;;;;;;489.77;48.50;;;0.70;99.90;;;-0.67;100.00;99189.84;5028594;28;20132;-68
2022/01/17 06:00:14;;;;;;;335.20;38.22;;;0.70;99.90;;;-0.65;100.00;99194.16;5029104;28;20129;-69
2022/01/17 06:02:41;;;;;;;299.30;36.45;;;0.70;99.90;;;-0.64;100.00;99198.47;5030365;28;20136;-68
2022/01/17 06:05:08;;;;;;;508.98;48.42;;;0.70;99.90;;;-0.75;100.00;99194.75;5032789;28;20486;-68
2022/01/17 06:07:35;;;;;;;275.05;34.13;;;0.70;99.90;;;-0.63;100.00;99196.75;5030110;28;20172;-69
2022/01/17 06:10:03;;;;;;;355.33;39.40;;;0.70;99.90;;;-0.63;100.00;99187.41;5028957;28;20128;-68
2022/01/17 06:12:29;;;;;;;389.83;42.15;;;0.70;99.90;;;-0.56;100.00;99200.34;5028177;28;20130;-68
2022/01/17 06:14:57;;;;;;;393.17;38.85;;;0.80;99.90;;;-0.54;100.00;99197.03;5030367;28;20052;-68
2022/01/17 06:17:25;;;;;;;435.65;41.20;;;0.70;99.90;;;-0.30;100.00;99211.25;5029742;28;20445;-68
2022/01/17 06:19:52;;;;;;;354.20;37.53;;;0.70;99.90;;;0.18;100.00;99210.78;5027204;28;20482;-70
2022/01/17 06:22:19;;;;;;;524.13;46.47;;;0.70;99.90;;;0.11;100.00;99207.22;5028890;28;20492;-70
2022/01/17 06:24:46;;;;;;;390.13;41.20;;;0.80;99.90;;;-0.50;100.00;99218.34;5029445;28;20050;-68
2022/01/17 06:27:14;;;;;;;375.33;38.35;;;0.80;99.90;;;-0.35;100.00;99233.25;5029939;28;20117;-69
2022/01/17 06:29:41;;;;;;;358.40;38.33;;;0.80;99.90;;;-0.48;100.00;99215.06;5029845;28;20128;-68
2022/01/17 06:32:08;;;;;;;517.55;48.92;;;0.80;99.90;;;-0.68;100.00;99224.69;5027978;28;20152;-68
2022/01/17 06:34:54;;;;;;;350.52;38.67;;;0.80;99.90;;;-0.59;100.00;99230.84;5027304;28;20053;-68
2022/01/17 06:37:21;;;;;;;313.58;33.88;;;0.80;99.90;;;-0.52;100.00;99235.34;5029634;28;20081;-68
2022/01/17 06:39:53;;;;;;;427.85;41.63;;;0.80;99.90;;;-0.33;100.00;99234.16;5027835;28;20052;-69
2022/01/17 06:42:21;;;;;;;518.65;47.13;;;0.80;99.90;;;-0.39;100.00;99250.13;5026932;28;20123;-68
2022/01/17 06:44:51;;;;;;;398.95;40.42;;;0.80;99.90;;;-0.48;100.00;99250.78;5029762;28;20327;-68
2022/01/17 06:47:19;;;;;;;260.20;32.80;;;0.90;99.90;;;-0.39;100.00;99228.88;5028426;28;20137;-68
2022/01/17 06:49:46;;;;;;;324.05;36.30;;;0.80;99.90;;;-0.42;100.00;99222.84;5029204;28;20147;-68
2022/01/17 06:52:13;;;;;;;480.45;47.58;;;0.80;99.90;;;-0.41;100.00;99226.28;5031188;28;20501;-68
2022/01/17 06:54:40;;;;;;;302.60;38.63;;;0.80;99.90;;;-0.38;100.00;99226.38;5030277;28;20042;-68
2022/01/17 06:57:07;;;;;;;287.17;30.50;;;0.80;99.90;;;-0.37;100.00;99224.66;5033184;28;20115;-68
2022/01/17 06:59:34;;;;;;;582.47;53.85;;;0.70;99.90;;;-0.36;100.00;99224.72;5028232;28;20141;-70
2022/01/17 07:02:01;;;;;;;337.10;36.13;;;0.80;99.90;;;-0.43;100.00;99210.94;5029077;28;20531;-68
2022/01/17 07:04:28;;;;;;;528.08;52.08;;;0.80;99.90;;;-0.50;100.00;99219.25;5031630;28;20488;-68
2022/01/17 07:06:55;;;;;;;277.80;33.03;;;0.90;99.90;;;-0.46;100.00;99232.94;5026125;28;20049;-69
2022/01/17 07:09:22;;;;;;;271.50;33.10;;;0.90;99.90;;;-0.49;100.00;99245.63;5029104;28;20081;-69
2022/01/17 07:11:49;;;;;;;384.45;39.08;;;0.80;99.90;;;-0.54;100.00;99257.38;5031740;28;20412;-68
2022/01/17 07:14:16;;;;;;;164.00;27.05;;;0.80;99.90;;;-0.32;100.00;99276.69;5028879;28;20128;-69
2022/01/17 07:16:43;;;;;;;294.80;37.13;;;0.80;99.90;;;-0.36;100.00;99300.41;5029158;28;20120;-68
2022/01/17 07:19:11;;;;;;;335.02;37.38;;;0.90;99.90;;;-0.30;100.00;99303.97;5028698;28;20128;-68
2022/01/17 07:21:37;;;;;;;285.23;34.65;;;0.90;99.90;;;-0.44;100.00;99310.38;5029924;28;20045;-68
2022/01/17 07:24:13;;;;;;;220.13;30.25;;;0.90;99.90;;;-0.31;100.00;99332.03;5029203;28;20049;-68
2022/01/17 07:26:40;;;;;;;272.25;35.33;;;0.90;99.90;;;-0.25;100.00;99321.97;5028391;28;20045;-67
2022/01/17 07:29:08;;;;;;;344.00;41.92;;;1.00;99.90;;;-0.29;100.00;99328.69;5028971;28;20045;-69
2022/01/17 07:31:36;;;;;;;372.95;38.20;;;1.00;99.90;;;-0.24;100.00;99328.81;5028429;28;20060;-67
2022/01/17 07:34:04;;;;;;;348.30;37.60;;;1.00;99.90;;;-0.13;100.00;99313.81;5029796;28;20056;-68
2022/01/17 07:36:31;;;;;;;376.60;42.08;;;0.90;99.90;;;-0.22;100.00;99299.97;5028465;28;20111;-69
2022/01/17 07:38:59;;;;;;;442.33;46.88;;;1.00;99.90;;;-0.26;100.00;99302.38;5028949;28;20137;-67
2022/01/17 07:41:27;;;;;;;423.13;44.58;;;1.00;99.90;;;-0.22;100.00;99287.19;5027825;28;20145;-67
2022/01/17 07:44:00;;;;;;;304.15;36.05;;;1.00;99.90;;;-0.21;100.00;99282.97;5027171;28;20488;-68
2022/01/17 07:46:47;;;;;;;359.77;40.67;;;1.00;99.90;;;-0.10;100.00;99285.81;5027234;28;20103;-68
2022/01/17 07:49:22;;;;;;;357.85;36.88;;;0.90;99.90;;;-0.29;100.00;99299.75;5029238;28;20413;-68
2022/01/17 07:51:59;;;;;;;240.50;30.17;;;1.00;99.90;;;-0.23;100.00;99293.16;5040112;28;20493;-68
2022/01/17 07:54:30;;;;;;;360.45;39.67;;;1.00;99.90;;;-0.12;100.00;99292.56;5027194;28;20490;-68
2022/01/17 07:56:59;;;;;;;240.27;34.10;;;0.90;99.90;;;-0.11;100.00;99295.16;5025322;28;20501;-67
2022/01/17 07:59:27;;;;;;;411.30;42.05;;;1.00;99.90;;;-0.27;100.00;99291.31;5025881;28;20530;-68
2022/01/17 08:01:54;;;;;;;159.73;26.25;;;1.00;99.90;;;-0.09;100.00;99285.88;5027173;28;20059;-67
2022/01/17 08:04:22;;;;;;;277.63;30.55;;;1.00;99.90;;;-0.05;100.00;99290.22;5028137;28;20054;-68
2022/01/17 08:06:51;;;;;;;322.65;36.17;;;1.00;99.90;;;-0.03;100.00;99278.34;5028065;28;20136;-67
2022/01/17 08:09:32;;;;;;;389.65;40.33;;;1.00;99.90;;;-0.21;100.00;99300.81;5028448;28;20076;-69
2022/01/17 08:12:07;;;;;;;423.45;43.30;;;1.00;99.90;;;-0.28;100.00;99291.25;5027271;28;20072;-67
2022/01/17 08:14:35;;;;;;;316.25;32.50;;;1.10;99.90;;;-0.13;100.00;99284.03;5028902;28;20164;-67
2022/01/17 08:17:03;;;;;;;213.30;28.17;;;1.10;99.90;;;-0.07;100.00;99288.44;5026730;28;20045;-67
2022/01/17 08:19:30;;;;;;;348.95;39.22;;;1.00;99.90;;;-0.12;100.00;99297.66;5029289;28;20552;-68
2022/01/17 08:22:04;;;;;;;303.20;35.67;;;1.00;99.90;;;-0.10;100.00;99316.44;5028824;28;20148;-68
2022/01/17 08:24:32;;;;;;;383.40;39.43;;;1.10;99.90;;;-0.09;100.00;99315.59;5027088;28;20169;-68
2022/01/17 08:27:00;;;;;;;236.35;32.38;;;1.20;99.90;;;-0.07;100.00;99313.97;5028230;28;20137;-68
2022/01/17 08:29:28;;;;;;;266.83;34.50;;;1.20;99.90;;;-0.02;100.00;99328.59;5026691;28;20124;-68
2022/01/17 08:31:57;;;;;;;256.50;36.35;;;1.20;99.90;;;0.12;100.00;99341.75;5026140;28;20495;-68
2022/01/17 08:34:24;;;;;;;210.32;32.20;;;1.20;99.90;;;0.10;100.00;99355.28;5026553;28;20053;-69
2022/01/17 08:36:53;;;;;;;196.00;32.25;;;1.20;99.90;;;0.21;100.00;99351.34;5027617;28;20042;-68
2022/01/17 08:39:20;;;;;;;162.88;27.80;;;1.30;99.90;;;0.26;100.00;99348.91;5026181;28;20046;-70
2022/01/17 08:41:47;;;;;;;93.68;25.00;;;1.40;99.90;;;0.35;100.00;99349.16;5027337;28;20068;-67
2022/01/17 08:44:16;;;;;;;84.32;22.38;;;1.40;99.90;;;0.32;100.00;99346.50;5028409;28;20369;-69
2022/01/17 08:46:43;;;;;;;97.40;24.58;;;1.40;99.90;;;0.42;100.00;99353.59;5026493;28;20117;-68
2022/01/17 08:49:10;;;;;;;120.00;26.08;;;1.50;99.90;;;0.33;100.00;99332.94;5026325;28;20498;-68
2022/01/17 08:51:40;;;;;;;143.05;26.08;;;1.50;99.90;;;0.26;100.00;99333.59;5027358;28;20038;-68
2022/01/17 08:54:07;;;;;;;102.43;22.30;;;1.50;99.90;;;0.48;100.00;99337.56;5027520;28;20056;-67
2022/01/17 08:56:34;;;;;;;100.00;23.92;;;1.50;99.90;;;0.46;100.00;99332.44;5027765;28;20128;-68
2022/01/17 08:59:02;;;;;;;108.80;25.08;;;1.50;99.90;;;0.43;100.00;99327.22;5030738;28;20080;-68
2022/01/17 09:01:30;;;;;;;107.20;24.05;;;1.50;99.90;;;0.39;100.00;99323.75;5030951;28;20814;-67
2022/01/17 09:03:57;;;;;;;135.05;25.17;;;1.60;99.90;;;0.19;100.00;99322.34;5034267;28;20132;-69
2022/01/17 09:06:25;;;;;;;159.23;27.70;;;1.50;99.90;;;0.08;100.00;99328.84;5033941;28;20144;-70
2022/01/17 09:08:52;;;;;;;143.90;26.88;;;1.50;99.90;;;0.14;100.00;99337.56;5031654;28;20050;-68
2022/01/17 09:11:20;;;;;;;190.57;32.30;;;1.50;99.90;;;0.18;100.00;99344.47;5031380;28;20124;-68
2022/01/17 09:13:47;;;;;;;157.95;24.40;;;1.50;99.90;;;0.12;100.00;99363.88;5030929;28;20129;-69
2022/01/17 09:16:15;;;;;;;131.07;22.33;;;1.40;99.90;;;0.10;100.00;99373.16;5031049;28;20128;-68
2022/01/17 09:18:42;;;;;;;261.65;31.52;;;1.50;99.90;;;0.15;100.00;99359.69;5032639;28;20375;-67
2022/01/17 09:21:10;;;;;;;287.63;33.42;;;1.50;99.90;;;-0.04;100.00;99362.56;5032602;28;20073;-67
2022/01/17 09:23:37;;;;;;;333.15;34.35;;;1.50;99.90;;;-0.07;100.00;99368.47;5031631;28;20422;-69
2022/01/17 09:26:05;;;;;;;269.35;30.83;;;1.60;99.90;;;0.06;100.00;99344.13;5032677;28;20049;-68
2022/01/17 09:28:35;;;;;;;308.75;35.92;;;1.50;99.90;;;0.08;100.00;99337.38;5028884;28;20042;-68
2022/01/17 09:31:02;;;;;;;147.68;27.27;;;1.50;99.90;;;0.16;100.00;99335.91;5031107;28;20057;-68
2022/01/17 09:33:29;;;;;;;257.10;31.55;;;1.50;99.90;;;0.32;100.00;99339.72;5033543;28;20482;-68
2022/01/17 09:35:56;;;;;;;449.85;43.88;;;1.50;99.90;;;0.13;100.00;99338.34;5027699;28;20129;-67
2022/01/17 09:38:23;;;;;;;429.25;39.25;;;1.50;99.90;;;0.09;100.00;99349.34;5033552;28;20095;-68
2022/01/17 09:40:50;;;;;;;389.00;38.25;;;1.50;99.90;;;-0.04;100.00;99363.44;5030559;28;20137;-68
2022/01/17 09:43:37;;;;;;;674.17;57.30;;;1.50;99.90;;;-0.13;100.00;99370.81;5030765;28;20049;-68
2022/01/17 09:46:06;;;;;;;486.35;46.55;;;1.60;99.90;;;-0.09;100.00;99387.97;5031058;28;20121;-68
2022/01/17 09:48:35;;;;;;;467.27;42.25;;;1.50;99.90;;;-0.11;100.00;99394.72;5028290;28;20049;-68
2022/01/17 09:51:18;;;;;;;231.55;29.48;;;1.60;99.90;;;-0.04;100.00;99403.41;5031339;28;20056;-68
2022/01/17 09:53:45;;;;;;;325.50;38.90;;;1.50;99.90;;;0.13;100.00;99401.34;5031932;28;20049;-67
2022/01/17 09:56:13;;;;;;;423.17;42.05;;;1.50;99.90;;;0.15;100.00;99389.47;5029387;28;20124;-68
2022/01/17 09:58:41;;;;;;;529.55;49.28;;;1.50;99.90;;;0.35;100.00;99413.03;5029904;28;20128;-66
2022/01/17 10:01:09;;;;;;;374.58;46.33;;;1.60;99.90;;;0.53;100.00;99426.28;5028894;28;20417;-66
2022/01/17 10:03:38;;;;;;;298.35;40.17;;;1.70;99.90;;;0.29;100.00;99406.03;5030535;28;20473;-68
2022/01/17 10:06:06;;;;;;;275.90;40.13;;;1.70;99.90;;;0.35;100.00;99418.13;5030907;28;20077;-69
2022/01/17 10:08:33;;;;;;;505.45;45.72;;;1.70;99.90;;;0.22;100.00;99432.22;5029264;28;20073;-67
2022/01/17 10:11:01;;;;;;;187.05;36.05;;;1.80;99.90;;;0.46;100.00;99405.63;5028566;28;20154;-67
2022/01/17 10:13:37;;;;;;;293.05;36.67;;;1.80;99.90;;;0.48;100.00;99404.88;5028463;28;20046;-68
2022/01/17 10:16:11;;;;;;;234.38;34.33;;;1.70;99.90;;;0.49;100.00;99414.25;5029199;28;20049;-67
2022/01/17 10:18:45;;;;;;;315.58;38.72;;;1.70;99.90;;;0.44;100.00;99413.28;5027456;28;20057;-68
2022/01/17 10:21:32;;;;;;;309.67;41.88;;;1.80;99.90;;;0.61;100.00;99406.06;5029654;28;20068;-68
2022/01/17 10:35:27;;;;;;;410.80;36.05;;;1.90;99.90;;;0.60;100.00;99410.31;5029215;28;20140;-68
2022/01/17 10:38:00;;;;;;;288.65;33.22;;;1.90;99.90;;;0.73;100.00;99411.50;5029571;28;20045;-68